THY3ZY LDZA-LTFM
Flight info
| Callsign | THY3ZY |
|---|---|
| Flight time | N/A |
| Altitude | 33000 |
| Route | TEBLI DCT TIVNU DCT UZVEZ DCT MITNO DCT NISVA DCT DEDIN L614 GERGI T391 AYTEK |
| Aircraft | A321/M-SDE3FGHIRWY/LB1 |
Departure
| Time | 2026-05-05 21:17 |
|---|---|
| Airport | Zagreb Franjo Tuđman International Airport (LDZA) |
Arrival
| Time | N/A |
|---|---|
| Airport | İstanbul Airport (LTFM) |
| Time | Latitude | Longitude | Altitude | Speed | Heading |
|---|---|---|---|---|---|
| 2026-05-05 20:59 | 45.74082 | 16.07707 | 359 ft | 0 kts | 137° |
| 2026-05-05 21:06 | 45.74088 | 16.07700 | 364 ft | 4 kts | 136° |
| 2026-05-05 21:07 | 45.74106 | 16.07672 | 358 ft | 4 kts | 129° |
| 2026-05-05 21:07 | 45.74122 | 16.07641 | 361 ft | 4 kts | 120° |
| 2026-05-05 21:07 | 45.74133 | 16.07606 | 359 ft | 4 kts | 100° |
| 2026-05-05 21:07 | 45.74132 | 16.07574 | 359 ft | 3 kts | 50° |
| 2026-05-05 21:08 | 45.74130 | 16.07571 | 359 ft | 0 kts | 47° |
| 2026-05-05 21:10 | 45.74134 | 16.07577 | 364 ft | 2 kts | 47° |
| 2026-05-05 21:10 | 45.74149 | 16.07601 | 363 ft | 4 kts | 49° |
| 2026-05-05 21:10 | 45.74173 | 16.07638 | 359 ft | 6 kts | 47° |
| 2026-05-05 21:11 | 45.74205 | 16.07688 | 362 ft | 8 kts | 47° |
| 2026-05-05 21:11 | 45.74247 | 16.07751 | 365 ft | 9 kts | 46° |
| 2026-05-05 21:11 | 45.74295 | 16.07825 | 359 ft | 11 kts | 46° |
| 2026-05-05 21:11 | 45.74345 | 16.07896 | 359 ft | 8 kts | 37° |
| 2026-05-05 21:12 | 45.74400 | 16.07885 | 361 ft | 9 kts | 321° |
| 2026-05-05 21:12 | 45.74450 | 16.07819 | 363 ft | 8 kts | 316° |
| 2026-05-05 21:12 | 45.74496 | 16.07757 | 362 ft | 10 kts | 317° |
| 2026-05-05 21:12 | 45.74551 | 16.07697 | 359 ft | 7 kts | 346° |
| 2026-05-05 21:13 | 45.74593 | 16.07731 | 359 ft | 8 kts | 43° |
| 2026-05-05 21:13 | 45.74635 | 16.07794 | 367 ft | 9 kts | 46° |
| 2026-05-05 21:13 | 45.74685 | 16.07869 | 363 ft | 11 kts | 47° |
| 2026-05-05 21:13 | 45.74698 | 16.07890 | 359 ft | 0 kts | 46° |
| 2026-05-05 21:14 | 45.74703 | 16.07898 | 359 ft | 3 kts | 46° |
| 2026-05-05 21:14 | 45.74729 | 16.07936 | 359 ft | 7 kts | 47° |
| 2026-05-05 21:14 | 45.74770 | 16.07999 | 359 ft | 10 kts | 46° |
| 2026-05-05 21:15 | 45.74815 | 16.08063 | 358 ft | 7 kts | 37° |
| 2026-05-05 21:15 | 45.74863 | 16.08061 | 358 ft | 8 kts | 327° |
| 2026-05-05 21:15 | 45.74906 | 16.08004 | 358 ft | 9 kts | 317° |
| 2026-05-05 21:15 | 45.74944 | 16.07950 | 361 ft | 7 kts | 307° |
| 2026-05-05 21:16 | 45.74948 | 16.07882 | 361 ft | 7 kts | 248° |
| 2026-05-05 21:16 | 45.74914 | 16.07822 | 361 ft | 6 kts | 227° |
| 2026-05-05 21:16 | 45.74911 | 16.07816 | 360 ft | 1 kts | 226° |
| 2026-05-05 21:16 | 45.74849 | 16.07723 | 358 ft | 42 kts | 226° |
| 2026-05-05 21:17 | 45.74483 | 16.07165 | 360 ft | 110 kts | 227° |
| 2026-05-05 21:17 | 45.73831 | 16.06173 | 364 ft | 161 kts | 227° |
| 2026-05-05 21:17 | 45.72995 | 16.04898 | 662 ft | 179 kts | 227° |
| 2026-05-05 21:17 | 45.72147 | 16.03612 | 1358 ft | 177 kts | 226° |
| 2026-05-05 21:18 | 45.71284 | 16.02310 | 1768 ft | 188 kts | 226° |
| 2026-05-05 21:18 | 45.70334 | 16.00875 | 1972 ft | 210 kts | 226° |
| 2026-05-05 21:18 | 45.69277 | 15.99274 | 2157 ft | 234 kts | 226° |
| 2026-05-05 21:18 | 45.68114 | 15.97509 | 2617 ft | 249 kts | 227° |
| 2026-05-05 21:19 | 45.66921 | 15.95696 | 3379 ft | 250 kts | 226° |
| 2026-05-05 21:19 | 45.65518 | 15.94259 | 4180 ft | 254 kts | 199° |
| 2026-05-05 21:19 | 45.63772 | 15.94203 | 4872 ft | 264 kts | 165° |
| 2026-05-05 21:19 | 45.62225 | 15.95656 | 5550 ft | 277 kts | 131° |
| 2026-05-05 21:20 | 45.61445 | 15.98198 | 6249 ft | 288 kts | 101° |
| 2026-05-05 21:20 | 45.61294 | 16.01076 | 6946 ft | 293 kts | 93° |
| 2026-05-05 21:20 | 45.61247 | 16.03999 | 7635 ft | 297 kts | 93° |
| 2026-05-05 21:20 | 45.61192 | 16.06959 | 7922 ft | 298 kts | 93° |
| 2026-05-05 21:21 | 45.61131 | 16.09940 | 8463 ft | 300 kts | 94° |
| 2026-05-05 21:21 | 45.60905 | 16.12898 | 9191 ft | 300 kts | 102° |
| 2026-05-05 21:21 | 45.60480 | 16.15834 | 9855 ft | 304 kts | 105° |
| 2026-05-05 21:21 | 45.59973 | 16.18795 | 10370 ft | 315 kts | 106° |
| 2026-05-05 21:22 | 45.59419 | 16.21923 | 10512 ft | 336 kts | 105° |
| 2026-05-05 21:22 | 45.58841 | 16.25273 | 10643 ft | 358 kts | 105° |
| 2026-05-05 21:22 | 45.58169 | 16.28789 | 10777 ft | 375 kts | 111° |
| 2026-05-05 21:22 | 45.57046 | 16.32187 | 11201 ft | 382 kts | 123° |
| 2026-05-05 21:23 | 45.55475 | 16.35241 | 11783 ft | 383 kts | 134° |
| 2026-05-05 21:23 | 45.53533 | 16.37764 | 12369 ft | 384 kts | 145° |
| 2026-05-05 21:23 | 45.51292 | 16.39842 | 12971 ft | 386 kts | 149° |
| 2026-05-05 21:23 | 45.49009 | 16.41882 | 13561 ft | 389 kts | 149° |